sensor_id;sensor_type;location;lat;lon;timestamp;P1;durP1;ratioP1;P2;durP2;ratioP2
72413;SDS011;60995;52.154;4.498;2023-07-13T00:00:22;18.38;;;2.90;;
72413;SDS011;60995;52.154;4.498;2023-07-13T00:02:39;17.50;;;2.65;;
72413;SDS011;60995;52.154;4.498;2023-07-13T00:04:55;16.85;;;2.75;;
72413;SDS011;60995;52.154;4.498;2023-07-13T00:07:11;17.00;;;2.58;;
72413;SDS011;60995;52.154;4.498;2023-07-13T00:09:30;12.57;;;2.38;;
72413;SDS011;60995;52.154;4.498;2023-07-13T00:11:50;14.20;;;2.50;;
72413;SDS011;60995;52.154;4.498;2023-07-13T00:14:11;13.82;;;2.63;;
72413;SDS011;60995;52.154;4.498;2023-07-13T00:16:27;16.13;;;2.30;;
72413;SDS011;60995;52.154;4.498;2023-07-13T00:18:44;14.00;;;2.63;;
72413;SDS011;60995;52.154;4.498;2023-07-13T00:21:01;14.60;;;2.25;;
72413;SDS011;60995;52.154;4.498;2023-07-13T00:23:21;13.43;;;2.58;;
72413;SDS011;60995;52.154;4.498;2023-07-13T00:25:37;14.93;;;2.30;;
72413;SDS011;60995;52.154;4.498;2023-07-13T00:27:53;14.63;;;2.20;;
72413;SDS011;60995;52.154;4.498;2023-07-13T00:30:11;18.45;;;2.50;;
72413;SDS011;60995;52.154;4.498;2023-07-13T00:32:27;12.70;;;2.42;;
72413;SDS011;60995;52.154;4.498;2023-07-13T00:34:45;14.48;;;2.80;;
72413;SDS011;60995;52.154;4.498;2023-07-13T00:37:01;14.30;;;2.50;;
72413;SDS011;60995;52.154;4.498;2023-07-13T00:39:18;17.55;;;2.15;;
72413;SDS011;60995;52.154;4.498;2023-07-13T00:41:35;11.65;;;2.05;;
72413;SDS011;60995;52.154;4.498;2023-07-13T00:43:52;15.57;;;2.28;;
72413;SDS011;60995;52.154;4.498;2023-07-13T00:46:19;12.52;;;1.92;;
72413;SDS011;60995;52.154;4.498;2023-07-13T00:51:01;13.15;;;1.90;;
72413;SDS011;60995;52.154;4.498;2023-07-13T00:53:18;14.80;;;2.28;;
72413;SDS011;60995;52.154;4.498;2023-07-13T00:55:36;10.48;;;1.70;;
72413;SDS011;60995;52.154;4.498;2023-07-13T00:57:52;10.10;;;1.90;;
72413;SDS011;60995;52.154;4.498;2023-07-13T01:00:09;12.73;;;1.67;;
72413;SDS011;60995;52.154;4.498;2023-07-13T01:02:27;14.85;;;2.00;;
72413;SDS011;60995;52.154;4.498;2023-07-13T01:04:44;8.50;;;1.48;;
72413;SDS011;60995;52.154;4.498;2023-07-13T01:07:00;10.38;;;1.80;;
72413;SDS011;60995;52.154;4.498;2023-07-13T01:09:17;9.02;;;1.63;;
72413;SDS011;60995;52.154;4.498;2023-07-13T01:11:33;10.52;;;1.60;;
72413;SDS011;60995;52.154;4.498;2023-07-13T01:13:50;10.02;;;1.67;;
72413;SDS011;60995;52.154;4.498;2023-07-13T01:16:11;9.13;;;1.65;;
72413;SDS011;60995;52.154;4.498;2023-07-13T01:18:37;9.00;;;1.50;;
72413;SDS011;60995;52.154;4.498;2023-07-13T01:23:19;11.10;;;1.60;;
72413;SDS011;60995;52.154;4.498;2023-07-13T01:25:36;12.60;;;1.70;;
72413;SDS011;60995;52.154;4.498;2023-07-13T01:27:53;7.35;;;1.30;;
72413;SDS011;60995;52.154;4.498;2023-07-13T01:30:10;6.57;;;1.20;;
72413;SDS011;60995;52.154;4.498;2023-07-13T01:32:26;6.57;;;1.25;;
72413;SDS011;60995;52.154;4.498;2023-07-13T01:34:43;8.95;;;1.20;;
72413;SDS011;60995;52.154;4.498;2023-07-13T01:36:59;8.30;;;1.25;;
72413;SDS011;60995;52.154;4.498;2023-07-13T01:39:16;5.30;;;1.17;;
72413;SDS011;60995;52.154;4.498;2023-07-13T01:41:32;9.43;;;1.40;;
72413;SDS011;60995;52.154;4.498;2023-07-13T01:43:49;6.63;;;1.27;;
72413;SDS011;60995;52.154;4.498;2023-07-13T01:46:05;4.18;;;1.17;;
72413;SDS011;60995;52.154;4.498;2023-07-13T01:48:21;5.93;;;1.17;;
72413;SDS011;60995;52.154;4.498;2023-07-13T01:50:37;3.78;;;0.95;;
72413;SDS011;60995;52.154;4.498;2023-07-13T01:52:54;9.48;;;1.42;;
72413;SDS011;60995;52.154;4.498;2023-07-13T01:55:10;5.53;;;1.23;;
72413;SDS011;60995;52.154;4.498;2023-07-13T01:57:27;7.20;;;1.38;;
72413;SDS011;60995;52.154;4.498;2023-07-13T01:59:43;6.68;;;1.27;;
72413;SDS011;60995;52.154;4.498;2023-07-13T02:01:59;6.65;;;1.38;;
72413;SDS011;60995;52.154;4.498;2023-07-13T02:04:15;9.07;;;1.40;;
72413;SDS011;60995;52.154;4.498;2023-07-13T02:06:32;7.18;;;1.25;;
72413;SDS011;60995;52.154;4.498;2023-07-13T02:08:48;13.50;;;1.65;;
72413;SDS011;60995;52.154;4.498;2023-07-13T02:11:05;8.85;;;1.23;;
72413;SDS011;60995;52.154;4.498;2023-07-13T02:13:21;7.68;;;1.30;;
72413;SDS011;60995;52.154;4.498;2023-07-13T02:15:40;6.32;;;1.50;;
72413;SDS011;60995;52.154;4.498;2023-07-13T02:17:56;9.60;;;1.70;;
72413;SDS011;60995;52.154;4.498;2023-07-13T02:20:14;5.85;;;1.30;;
72413;SDS011;60995;52.154;4.498;2023-07-13T02:22:30;9.48;;;1.45;;
72413;SDS011;60995;52.154;4.498;2023-07-13T02:24:46;6.57;;;1.13;;
72413;SDS011;60995;52.154;4.498;2023-07-13T02:27:03;7.43;;;1.50;;
72413;SDS011;60995;52.154;4.498;2023-07-13T02:29:20;8.27;;;1.48;;
72413;SDS011;60995;52.154;4.498;2023-07-13T02:31:36;11.25;;;1.63;;
72413;SDS011;60995;52.154;4.498;2023-07-13T02:33:53;9.75;;;1.30;;
72413;SDS011;60995;52.154;4.498;2023-07-13T02:36:09;6.32;;;1.48;;
72413;SDS011;60995;52.154;4.498;2023-07-13T02:38:28;7.55;;;1.30;;
72413;SDS011;60995;52.154;4.498;2023-07-13T02:40:45;7.85;;;1.50;;
72413;SDS011;60995;52.154;4.498;2023-07-13T02:43:02;8.05;;;1.40;;
72413;SDS011;60995;52.154;4.498;2023-07-13T02:45:19;7.40;;;1.60;;
72413;SDS011;60995;52.154;4.498;2023-07-13T02:47:35;9.25;;;1.55;;
72413;SDS011;60995;52.154;4.498;2023-07-13T02:49:52;8.77;;;1.70;;
72413;SDS011;60995;52.154;4.498;2023-07-13T02:52:08;10.65;;;2.10;;
72413;SDS011;60995;52.154;4.498;2023-07-13T02:54:25;6.18;;;1.70;;
72413;SDS011;60995;52.154;4.498;2023-07-13T02:56:41;6.20;;;1.40;;
72413;SDS011;60995;52.154;4.498;2023-07-13T02:58:59;12.57;;;1.70;;
72413;SDS011;60995;52.154;4.498;2023-07-13T03:01:15;7.97;;;1.63;;
72413;SDS011;60995;52.154;4.498;2023-07-13T03:03:34;9.52;;;1.77;;
72413;SDS011;60995;52.154;4.498;2023-07-13T03:05:57;8.55;;;1.83;;
72413;SDS011;60995;52.154;4.498;2023-07-13T03:08:19;8.75;;;1.73;;
72413;SDS011;60995;52.154;4.498;2023-07-13T03:10:35;7.85;;;1.60;;
72413;SDS011;60995;52.154;4.498;2023-07-13T03:12:51;8.13;;;1.75;;
72413;SDS011;60995;52.154;4.498;2023-07-13T03:15:08;10.40;;;1.90;;
72413;SDS011;60995;52.154;4.498;2023-07-13T03:17:25;10.25;;;1.85;;
72413;SDS011;60995;52.154;4.498;2023-07-13T03:19:41;7.45;;;1.67;;
72413;SDS011;60995;52.154;4.498;2023-07-13T03:21:57;8.90;;;1.60;;
72413;SDS011;60995;52.154;4.498;2023-07-13T03:24:14;14.65;;;2.60;;
72413;SDS011;60995;52.154;4.498;2023-07-13T03:26:31;10.40;;;2.90;;
72413;SDS011;60995;52.154;4.498;2023-07-13T03:28:47;14.82;;;2.35;;
72413;SDS011;60995;52.154;4.498;2023-07-13T03:31:06;14.07;;;2.15;;
72413;SDS011;60995;52.154;4.498;2023-07-13T03:33:36;13.48;;;2.42;;
72413;SDS011;60995;52.154;4.498;2023-07-13T03:35:53;17.75;;;2.40;;
72413;SDS011;60995;52.154;4.498;2023-07-13T03:38:09;12.52;;;2.53;;
72413;SDS011;60995;52.154;4.498;2023-07-13T03:40:26;13.23;;;2.75;;
72413;SDS011;60995;52.154;4.498;2023-07-13T03:42:43;12.32;;;2.50;;
72413;SDS011;60995;52.154;4.498;2023-07-13T03:45:00;16.15;;;2.35;;
72413;SDS011;60995;52.154;4.498;2023-07-13T03:47:16;13.38;;;2.75;;
72413;SDS011;60995;52.154;4.498;2023-07-13T03:49:32;14.77;;;2.90;;
72413;SDS011;60995;52.154;4.498;2023-07-13T03:51:49;15.00;;;3.55;;
72413;SDS011;60995;52.154;4.498;2023-07-13T03:54:05;19.05;;;2.97;;
72413;SDS011;60995;52.154;4.498;2023-07-13T03:56:22;18.67;;;2.80;;
72413;SDS011;60995;52.154;4.498;2023-07-13T03:58:39;17.90;;;2.83;;
72413;SDS011;60995;52.154;4.498;2023-07-13T04:00:57;19.55;;;3.63;;
72413;SDS011;60995;52.154;4.498;2023-07-13T04:03:15;18.98;;;3.25;;
72413;SDS011;60995;52.154;4.498;2023-07-13T04:05:32;14.75;;;2.92;;
72413;SDS011;60995;52.154;4.498;2023-07-13T04:07:48;14.23;;;3.13;;
72413;SDS011;60995;52.154;4.498;2023-07-13T04:10:04;13.15;;;3.13;;
72413;SDS011;60995;52.154;4.498;2023-07-13T04:12:21;18.73;;;3.20;;
72413;SDS011;60995;52.154;4.498;2023-07-13T04:14:37;14.82;;;2.60;;
72413;SDS011;60995;52.154;4.498;2023-07-13T04:16:54;17.80;;;3.00;;
72413;SDS011;60995;52.154;4.498;2023-07-13T04:19:10;15.82;;;2.85;;
72413;SDS011;60995;52.154;4.498;2023-07-13T04:21:27;19.27;;;3.10;;
72413;SDS011;60995;52.154;4.498;2023-07-13T04:23:45;9.52;;;2.55;;
72413;SDS011;60995;52.154;4.498;2023-07-13T04:26:01;16.02;;;2.95;;
72413;SDS011;60995;52.154;4.498;2023-07-13T04:28:19;16.55;;;2.95;;
72413;SDS011;60995;52.154;4.498;2023-07-13T04:30:39;13.27;;;3.08;;
72413;SDS011;60995;52.154;4.498;2023-07-13T04:32:56;13.70;;;2.90;;
72413;SDS011;60995;52.154;4.498;2023-07-13T04:35:12;14.50;;;2.72;;
72413;SDS011;60995;52.154;4.498;2023-07-13T04:37:29;16.40;;;3.15;;
72413;SDS011;60995;52.154;4.498;2023-07-13T04:39:46;13.60;;;2.63;;
72413;SDS011;60995;52.154;4.498;2023-07-13T04:42:03;17.65;;;4.03;;
72413;SDS011;60995;52.154;4.498;2023-07-13T04:44:20;14.35;;;2.83;;
72413;SDS011;60995;52.154;4.498;2023-07-13T04:46:36;13.20;;;2.90;;
72413;SDS011;60995;52.154;4.498;2023-07-13T04:48:53;13.65;;;2.63;;
72413;SDS011;60995;52.154;4.498;2023-07-13T04:51:10;11.50;;;2.90;;
72413;SDS011;60995;52.154;4.498;2023-07-13T04:53:26;14.50;;;2.95;;
72413;SDS011;60995;52.154;4.498;2023-07-13T04:55:44;13.20;;;2.95;;
72413;SDS011;60995;52.154;4.498;2023-07-13T04:58:00;12.63;;;2.90;;
72413;SDS011;60995;52.154;4.498;2023-07-13T05:00:16;15.75;;;3.00;;
72413;SDS011;60995;52.154;4.498;2023-07-13T05:02:33;16.58;;;3.05;;
72413;SDS011;60995;52.154;4.498;2023-07-13T05:04:50;13.15;;;2.90;;
72413;SDS011;60995;52.154;4.498;2023-07-13T05:07:07;14.68;;;2.60;;
72413;SDS011;60995;52.154;4.498;2023-07-13T05:09:23;10.93;;;2.70;;
72413;SDS011;60995;52.154;4.498;2023-07-13T05:11:39;15.77;;;3.08;;
72413;SDS011;60995;52.154;4.498;2023-07-13T05:13:55;13.63;;;2.90;;
72413;SDS011;60995;52.154;4.498;2023-07-13T05:16:12;14.75;;;2.70;;
72413;SDS011;60995;52.154;4.498;2023-07-13T05:18:29;13.52;;;2.90;;
72413;SDS011;60995;52.154;4.498;2023-07-13T05:20:46;14.70;;;2.33;;
72413;SDS011;60995;52.154;4.498;2023-07-13T05:23:02;10.73;;;2.67;;
72413;SDS011;60995;52.154;4.498;2023-07-13T05:25:19;11.95;;;2.47;;
72413;SDS011;60995;52.154;4.498;2023-07-13T05:27:36;10.13;;;2.30;;
72413;SDS011;60995;52.154;4.498;2023-07-13T05:29:52;13.23;;;2.40;;
72413;SDS011;60995;52.154;4.498;2023-07-13T05:32:09;11.35;;;2.47;;
72413;SDS011;60995;52.154;4.498;2023-07-13T05:34:25;11.98;;;2.50;;
72413;SDS011;60995;52.154;4.498;2023-07-13T05:36:42;8.07;;;2.28;;
72413;SDS011;60995;52.154;4.498;2023-07-13T05:38:58;11.48;;;2.40;;
72413;SDS011;60995;52.154;4.498;2023-07-13T05:41:15;9.40;;;2.30;;
72413;SDS011;60995;52.154;4.498;2023-07-13T05:43:31;11.20;;;2.70;;
72413;SDS011;60995;52.154;4.498;2023-07-13T05:45:48;11.57;;;2.47;;
72413;SDS011;60995;52.154;4.498;2023-07-13T05:48:05;15.40;;;2.67;;
72413;SDS011;60995;52.154;4.498;2023-07-13T05:50:22;8.60;;;2.40;;
72413;SDS011;60995;52.154;4.498;2023-07-13T05:52:38;11.00;;;2.88;;
72413;SDS011;60995;52.154;4.498;2023-07-13T05:54:54;11.32;;;2.40;;
72413;SDS011;60995;52.154;4.498;2023-07-13T05:57:10;10.95;;;2.53;;
72413;SDS011;60995;52.154;4.498;2023-07-13T05:59:27;10.48;;;2.50;;
72413;SDS011;60995;52.154;4.498;2023-07-13T06:01:43;10.27;;;3.05;;
72413;SDS011;60995;52.154;4.498;2023-07-13T06:03:59;17.23;;;3.22;;
72413;SDS011;60995;52.154;4.498;2023-07-13T06:06:16;12.25;;;2.38;;
72413;SDS011;60995;52.154;4.498;2023-07-13T06:08:32;6.32;;;1.80;;
72413;SDS011;60995;52.154;4.498;2023-07-13T06:10:49;11.15;;;2.55;;
72413;SDS011;60995;52.154;4.498;2023-07-13T06:13:05;11.60;;;2.53;;
72413;SDS011;60995;52.154;4.498;2023-07-13T06:15:21;11.02;;;2.22;;
72413;SDS011;60995;52.154;4.498;2023-07-13T06:17:38;11.93;;;3.20;;
72413;SDS011;60995;52.154;4.498;2023-07-13T06:19:54;10.95;;;2.60;;
72413;SDS011;60995;52.154;4.498;2023-07-13T06:22:10;11.63;;;2.58;;
72413;SDS011;60995;52.154;4.498;2023-07-13T06:24:27;9.20;;;2.78;;
72413;SDS011;60995;52.154;4.498;2023-07-13T06:26:43;10.75;;;2.08;;
72413;SDS011;60995;52.154;4.498;2023-07-13T06:28:59;10.38;;;2.55;;
72413;SDS011;60995;52.154;4.498;2023-07-13T06:31:15;8.88;;;2.38;;
72413;SDS011;60995;52.154;4.498;2023-07-13T06:33:32;9.68;;;2.65;;
72413;SDS011;60995;52.154;4.498;2023-07-13T06:35:49;13.20;;;2.60;;
72413;SDS011;60995;52.154;4.498;2023-07-13T06:38:05;11.27;;;2.22;;
72413;SDS011;60995;52.154;4.498;2023-07-13T06:40:22;7.40;;;2.20;;
72413;SDS011;60995;52.154;4.498;2023-07-13T06:42:38;11.10;;;2.60;;
72413;SDS011;60995;52.154;4.498;2023-07-13T06:44:54;8.32;;;1.95;;
72413;SDS011;60995;52.154;4.498;2023-07-13T06:47:10;10.02;;;2.08;;
72413;SDS011;60995;52.154;4.498;2023-07-13T06:49:27;11.38;;;2.38;;
72413;SDS011;60995;52.154;4.498;2023-07-13T06:51:43;9.00;;;2.03;;
72413;SDS011;60995;52.154;4.498;2023-07-13T06:53:59;8.57;;;2.17;;
72413;SDS011;60995;52.154;4.498;2023-07-13T06:56:15;9.20;;;2.22;;
72413;SDS011;60995;52.154;4.498;2023-07-13T06:58:33;8.00;;;1.88;;
72413;SDS011;60995;52.154;4.498;2023-07-13T07:00:51;7.93;;;1.85;;
72413;SDS011;60995;52.154;4.498;2023-07-13T07:03:08;9.30;;;1.65;;
72413;SDS011;60995;52.154;4.498;2023-07-13T07:05:24;6.82;;;1.83;;
72413;SDS011;60995;52.154;4.498;2023-07-13T07:07:41;8.48;;;1.80;;
72413;SDS011;60995;52.154;4.498;2023-07-13T07:09:57;7.75;;;2.00;;
72413;SDS011;60995;52.154;4.498;2023-07-13T07:12:14;10.52;;;2.22;;
72413;SDS011;60995;52.154;4.498;2023-07-13T07:14:30;9.18;;;1.98;;
72413;SDS011;60995;52.154;4.498;2023-07-13T07:16:47;7.38;;;1.77;;
72413;SDS011;60995;52.154;4.498;2023-07-13T07:19:03;8.90;;;3.10;;
72413;SDS011;60995;52.154;4.498;2023-07-13T07:21:20;10.57;;;2.53;;
72413;SDS011;60995;52.154;4.498;2023-07-13T07:23:38;9.77;;;2.22;;
72413;SDS011;60995;52.154;4.498;2023-07-13T07:25:55;8.95;;;2.03;;
72413;SDS011;60995;52.154;4.498;2023-07-13T07:28:12;9.55;;;1.95;;
72413;SDS011;60995;52.154;4.498;2023-07-13T07:30:33;8.00;;;1.80;;
72413;SDS011;60995;52.154;4.498;2023-07-13T07:32:50;7.20;;;1.90;;
72413;SDS011;60995;52.154;4.498;2023-07-13T07:35:06;9.05;;;1.88;;
72413;SDS011;60995;52.154;4.498;2023-07-13T07:37:23;6.75;;;1.88;;
72413;SDS011;60995;52.154;4.498;2023-07-13T07:39:40;6.57;;;1.85;;
72413;SDS011;60995;52.154;4.498;2023-07-13T07:41:56;6.82;;;1.60;;
72413;SDS011;60995;52.154;4.498;2023-07-13T07:44:13;7.93;;;1.85;;
72413;SDS011;60995;52.154;4.498;2023-07-13T07:46:29;10.95;;;2.60;;
72413;SDS011;60995;52.154;4.498;2023-07-13T07:48:45;6.90;;;1.80;;
72413;SDS011;60995;52.154;4.498;2023-07-13T07:51:02;6.75;;;1.77;;
72413;SDS011;60995;52.154;4.498;2023-07-13T07:53:18;6.80;;;1.88;;
72413;SDS011;60995;52.154;4.498;2023-07-13T07:55:35;12.20;;;2.13;;
72413;SDS011;60995;52.154;4.498;2023-07-13T07:57:51;9.75;;;2.47;;
72413;SDS011;60995;52.154;4.498;2023-07-13T08:00:08;8.77;;;2.10;;
72413;SDS011;60995;52.154;4.498;2023-07-13T08:02:25;9.25;;;2.03;;
72413;SDS011;60995;52.154;4.498;2023-07-13T08:04:42;7.43;;;1.67;;
72413;SDS011;60995;52.154;4.498;2023-07-13T08:06:59;9.50;;;2.15;;
72413;SDS011;60995;52.154;4.498;2023-07-13T08:09:18;11.77;;;2.25;;
72413;SDS011;60995;52.154;4.498;2023-07-13T08:11:34;9.77;;;1.88;;
72413;SDS011;60995;52.154;4.498;2023-07-13T08:13:51;12.07;;;2.30;;
72413;SDS011;60995;52.154;4.498;2023-07-13T08:16:08;10.23;;;2.28;;
72413;SDS011;60995;52.154;4.498;2023-07-13T08:18:24;8.57;;;2.25;;
72413;SDS011;60995;52.154;4.498;2023-07-13T08:20:40;9.70;;;2.30;;
72413;SDS011;60995;52.154;4.498;2023-07-13T08:22:57;9.43;;;2.10;;
72413;SDS011;60995;52.154;4.498;2023-07-13T08:25:13;11.88;;;2.50;;
72413;SDS011;60995;52.154;4.498;2023-07-13T08:27:29;10.05;;;2.45;;
72413;SDS011;60995;52.154;4.498;2023-07-13T08:29:47;7.78;;;2.22;;
72413;SDS011;60995;52.154;4.498;2023-07-13T08:32:04;13.63;;;2.53;;
72413;SDS011;60995;52.154;4.498;2023-07-13T08:34:24;13.32;;;2.75;;
72413;SDS011;60995;52.154;4.498;2023-07-13T08:36:41;8.38;;;2.30;;
72413;SDS011;60995;52.154;4.498;2023-07-13T08:38:57;10.20;;;2.33;;
72413;SDS011;60995;52.154;4.498;2023-07-13T08:41:21;8.40;;;2.55;;
72413;SDS011;60995;52.154;4.498;2023-07-13T08:43:39;9.27;;;2.38;;
72413;SDS011;60995;52.154;4.498;2023-07-13T08:48:50;8.90;;;2.05;;
72413;SDS011;60995;52.154;4.498;2023-07-13T08:53:46;9.75;;;1.92;;
72413;SDS011;60995;52.154;4.498;2023-07-13T08:56:09;8.50;;;2.50;;
72413;SDS011;60995;52.154;4.498;2023-07-13T08:58:34;8.90;;;2.40;;
72413;SDS011;60995;52.154;4.498;2023-07-13T09:00:54;10.40;;;2.67;;
72413;SDS011;60995;52.154;4.498;2023-07-13T09:03:31;9.00;;;1.98;;
72413;SDS011;60995;52.154;4.498;2023-07-13T09:06:00;11.02;;;2.22;;
72413;SDS011;60995;52.154;4.498;2023-07-13T09:16:22;9.90;;;2.35;;
72413;SDS011;60995;52.154;4.498;2023-07-13T09:18:41;9.80;;;2.53;;
72413;SDS011;60995;52.154;4.498;2023-07-13T09:21:10;7.53;;;2.30;;
72413;SDS011;60995;52.154;4.498;2023-07-13T09:23:34;9.75;;;2.30;;
72413;SDS011;60995;52.154;4.498;2023-07-13T09:25:53;10.25;;;2.35;;
72413;SDS011;60995;52.154;4.498;2023-07-13T09:28:19;8.55;;;2.38;;
72413;SDS011;60995;52.154;4.498;2023-07-13T09:33:17;13.57;;;2.38;;
72413;SDS011;60995;52.154;4.498;2023-07-13T09:35:34;11.02;;;2.63;;
72413;SDS011;60995;52.154;4.498;2023-07-13T09:37:51;8.13;;;2.17;;
72413;SDS011;60995;52.154;4.498;2023-07-13T09:40:22;9.48;;;2.95;;
72413;SDS011;60995;52.154;4.498;2023-07-13T09:43:10;9.05;;;2.42;;
72413;SDS011;60995;52.154;4.498;2023-07-13T09:45:32;14.98;;;2.63;;
72413;SDS011;60995;52.154;4.498;2023-07-13T09:47:50;7.57;;;2.40;;
72413;SDS011;60995;52.154;4.498;2023-07-13T09:50:19;10.65;;;2.92;;
72413;SDS011;60995;52.154;4.498;2023-07-13T09:52:43;12.05;;;3.05;;
72413;SDS011;60995;52.154;4.498;2023-07-13T09:55:03;8.48;;;2.28;;
72413;SDS011;60995;52.154;4.498;2023-07-13T09:57:22;7.25;;;2.10;;
72413;SDS011;60995;52.154;4.498;2023-07-13T09:59:43;8.07;;;2.03;;
72413;SDS011;60995;52.154;4.498;2023-07-13T10:02:08;10.82;;;2.75;;
72413;SDS011;60995;52.154;4.498;2023-07-13T10:04:43;7.80;;;1.95;;
72413;SDS011;60995;52.154;4.498;2023-07-13T10:07:06;10.48;;;1.92;;
72413;SDS011;60995;52.154;4.498;2023-07-13T10:09:27;7.90;;;2.08;;
72413;SDS011;60995;52.154;4.498;2023-07-13T10:11:43;10.02;;;2.30;;
72413;SDS011;60995;52.154;4.498;2023-07-13T10:14:01;9.70;;;2.38;;
72413;SDS011;60995;52.154;4.498;2023-07-13T10:16:27;8.30;;;2.22;;
72413;SDS011;60995;52.154;4.498;2023-07-13T10:18:51;9.88;;;2.00;;
72413;SDS011;60995;52.154;4.498;2023-07-13T10:21:17;9.95;;;2.63;;
72413;SDS011;60995;52.154;4.498;2023-07-13T10:23:37;8.07;;;2.08;;
72413;SDS011;60995;52.154;4.498;2023-07-13T10:25:54;8.75;;;2.70;;
72413;SDS011;60995;52.154;4.498;2023-07-13T10:30:40;8.88;;;2.10;;
72413;SDS011;60995;52.154;4.498;2023-07-13T10:33:02;8.93;;;2.00;;
72413;SDS011;60995;52.154;4.498;2023-07-13T10:35:26;9.40;;;2.40;;
72413;SDS011;60995;52.154;4.498;2023-07-13T10:37:51;8.77;;;2.97;;
72413;SDS011;60995;52.154;4.498;2023-07-13T10:40:34;10.27;;;2.70;;
72413;SDS011;60995;52.154;4.498;2023-07-13T10:42:54;8.60;;;2.50;;
72413;SDS011;60995;52.154;4.498;2023-07-13T10:45:17;8.05;;;2.25;;
72413;SDS011;60995;52.154;4.498;2023-07-13T10:47:37;9.50;;;2.08;;
72413;SDS011;60995;52.154;4.498;2023-07-13T10:49:56;10.25;;;2.30;;
72413;SDS011;60995;52.154;4.498;2023-07-13T10:55:03;7.68;;;2.20;;
72413;SDS011;60995;52.154;4.498;2023-07-13T10:57:20;9.65;;;2.60;;
72413;SDS011;60995;52.154;4.498;2023-07-13T10:59:37;7.03;;;2.15;;
72413;SDS011;60995;52.154;4.498;2023-07-13T11:04:20;11.25;;;2.25;;
72413;SDS011;60995;52.154;4.498;2023-07-13T11:06:37;8.30;;;2.30;;
72413;SDS011;60995;52.154;4.498;2023-07-13T11:11:44;9.43;;;2.08;;
72413;SDS011;60995;52.154;4.498;2023-07-13T11:14:01;7.68;;;2.10;;
72413;SDS011;60995;52.154;4.498;2023-07-13T11:18:39;10.18;;;2.67;;
72413;SDS011;60995;52.154;4.498;2023-07-13T11:21:12;9.20;;;2.50;;
72413;SDS011;60995;52.154;4.498;2023-07-13T11:23:36;11.45;;;2.35;;
72413;SDS011;60995;52.154;4.498;2023-07-13T11:26:00;9.32;;;2.22;;
72413;SDS011;60995;52.154;4.498;2023-07-13T11:28:21;9.57;;;2.10;;
72413;SDS011;60995;52.154;4.498;2023-07-13T11:38:17;9.13;;;2.30;;
72413;SDS011;60995;52.154;4.498;2023-07-13T11:41:00;9.23;;;2.42;;
72413;SDS011;60995;52.154;4.498;2023-07-13T11:43:23;11.25;;;2.30;;
72413;SDS011;60995;52.154;4.498;2023-07-13T11:45:39;7.45;;;2.58;;
72413;SDS011;60995;52.154;4.498;2023-07-13T11:47:56;9.20;;;2.45;;
72413;SDS011;60995;52.154;4.498;2023-07-13T11:50:19;8.27;;;2.25;;
72413;SDS011;60995;52.154;4.498;2023-07-13T11:52:40;11.18;;;2.50;;
72413;SDS011;60995;52.154;4.498;2023-07-13T11:54:56;8.32;;;2.05;;
72413;SDS011;60995;52.154;4.498;2023-07-13T11:57:33;10.40;;;2.50;;
72413;SDS011;60995;52.154;4.498;2023-07-13T11:59:59;7.05;;;2.00;;
72413;SDS011;60995;52.154;4.498;2023-07-13T12:04:47;9.43;;;2.47;;
72413;SDS011;60995;52.154;4.498;2023-07-13T12:07:05;7.38;;;2.28;;
72413;SDS011;60995;52.154;4.498;2023-07-13T12:09:30;7.93;;;2.17;;
72413;SDS011;60995;52.154;4.498;2023-07-13T12:11:46;6.07;;;2.20;;
72413;SDS011;60995;52.154;4.498;2023-07-13T12:14:02;9.10;;;2.13;;
72413;SDS011;60995;52.154;4.498;2023-07-13T12:16:28;7.60;;;2.20;;
72413;SDS011;60995;52.154;4.498;2023-07-13T12:18:48;6.97;;;2.20;;
72413;SDS011;60995;52.154;4.498;2023-07-13T12:21:04;9.35;;;2.38;;
72413;SDS011;60995;52.154;4.498;2023-07-13T12:23:28;11.70;;;2.22;;
72413;SDS011;60995;52.154;4.498;2023-07-13T12:25:48;8.18;;;2.47;;
72413;SDS011;60995;52.154;4.498;2023-07-13T12:28:19;7.75;;;2.10;;
72413;SDS011;60995;52.154;4.498;2023-07-13T12:30:49;8.23;;;2.30;;
72413;SDS011;60995;52.154;4.498;2023-07-13T12:33:15;9.10;;;2.00;;
72413;SDS011;60995;52.154;4.498;2023-07-13T12:35:32;7.85;;;2.20;;
72413;SDS011;60995;52.154;4.498;2023-07-13T12:38:02;6.00;;;2.00;;
72413;SDS011;60995;52.154;4.498;2023-07-13T12:40:28;5.93;;;1.90;;
72413;SDS011;60995;52.154;4.498;2023-07-13T12:42:50;7.75;;;2.00;;
72413;SDS011;60995;52.154;4.498;2023-07-13T12:45:19;9.88;;;2.25;;
72413;SDS011;60995;52.154;4.498;2023-07-13T12:47:40;8.23;;;2.35;;
72413;SDS011;60995;52.154;4.498;2023-07-13T12:49:58;7.57;;;2.03;;
72413;SDS011;60995;52.154;4.498;2023-07-13T12:52:23;9.07;;;2.08;;
72413;SDS011;60995;52.154;4.498;2023-07-13T12:54:57;5.95;;;1.70;;
72413;SDS011;60995;52.154;4.498;2023-07-13T12:57:20;8.30;;;2.00;;
72413;SDS011;60995;52.154;4.498;2023-07-13T12:59:36;8.18;;;2.70;;
72413;SDS011;60995;52.154;4.498;2023-07-13T13:01:53;6.88;;;1.90;;
72413;SDS011;60995;52.154;4.498;2023-07-13T13:04:10;7.50;;;2.08;;
72413;SDS011;60995;52.154;4.498;2023-07-13T13:06:28;9.95;;;1.98;;
72413;SDS011;60995;52.154;4.498;2023-07-13T13:08:46;6.18;;;2.20;;
72413;SDS011;60995;52.154;4.498;2023-07-13T13:11:14;11.57;;;2.15;;
72413;SDS011;60995;52.154;4.498;2023-07-13T13:13:31;7.60;;;2.15;;
72413;SDS011;60995;52.154;4.498;2023-07-13T13:15:48;6.25;;;2.38;;
72413;SDS011;60995;52.154;4.498;2023-07-13T13:18:08;6.20;;;1.90;;
72413;SDS011;60995;52.154;4.498;2023-07-13T13:20:31;8.50;;;2.50;;
72413;SDS011;60995;52.154;4.498;2023-07-13T13:22:48;8.80;;;2.40;;
72413;SDS011;60995;52.154;4.498;2023-07-13T13:25:04;8.20;;;1.98;;
72413;SDS011;60995;52.154;4.498;2023-07-13T13:27:21;8.63;;;3.50;;
72413;SDS011;60995;52.154;4.498;2023-07-13T13:29:38;9.23;;;2.65;;
72413;SDS011;60995;52.154;4.498;2023-07-13T13:31:55;7.03;;;2.00;;
72413;SDS011;60995;52.154;4.498;2023-07-13T13:34:13;8.70;;;1.90;;
72413;SDS011;60995;52.154;4.498;2023-07-13T13:36:31;7.50;;;1.77;;
72413;SDS011;60995;52.154;4.498;2023-07-13T13:38:48;6.22;;;1.67;;
72413;SDS011;60995;52.154;4.498;2023-07-13T13:41:07;6.63;;;1.98;;
72413;SDS011;60995;52.154;4.498;2023-07-13T13:43:26;12.00;;;2.22;;
72413;SDS011;60995;52.154;4.498;2023-07-13T13:45:43;8.68;;;1.75;;
72413;SDS011;60995;52.154;4.498;2023-07-13T13:48:01;7.05;;;1.98;;
72413;SDS011;60995;52.154;4.498;2023-07-13T13:50:20;9.40;;;1.88;;
72413;SDS011;60995;52.154;4.498;2023-07-13T13:54:57;9.07;;;1.83;;
72413;SDS011;60995;52.154;4.498;2023-07-13T13:57:13;7.07;;;1.95;;
72413;SDS011;60995;52.154;4.498;2023-07-13T13:59:30;7.97;;;2.40;;
72413;SDS011;60995;52.154;4.498;2023-07-13T14:01:48;6.70;;;2.00;;
72413;SDS011;60995;52.154;4.498;2023-07-13T14:04:05;6.25;;;2.33;;
72413;SDS011;60995;52.154;4.498;2023-07-13T14:06:22;11.32;;;2.67;;
72413;SDS011;60995;52.154;4.498;2023-07-13T14:08:38;8.52;;;2.40;;
72413;SDS011;60995;52.154;4.498;2023-07-13T14:10:55;6.85;;;1.90;;
72413;SDS011;60995;52.154;4.498;2023-07-13T14:13:17;7.55;;;2.10;;
72413;SDS011;60995;52.154;4.498;2023-07-13T14:15:38;5.70;;;1.80;;
72413;SDS011;60995;52.154;4.498;2023-07-13T14:17:55;7.03;;;1.73;;
72413;SDS011;60995;52.154;4.498;2023-07-13T14:20:11;9.13;;;2.33;;
72413;SDS011;60995;52.154;4.498;2023-07-13T14:22:29;7.10;;;2.10;;
72413;SDS011;60995;52.154;4.498;2023-07-13T14:24:45;8.38;;;2.47;;
72413;SDS011;60995;52.154;4.498;2023-07-13T14:27:01;9.77;;;1.90;;
72413;SDS011;60995;52.154;4.498;2023-07-13T14:29:18;9.95;;;2.50;;
72413;SDS011;60995;52.154;4.498;2023-07-13T14:31:35;4.18;;;1.65;;
72413;SDS011;60995;52.154;4.498;2023-07-13T14:33:51;7.35;;;2.00;;
72413;SDS011;60995;52.154;4.498;2023-07-13T14:36:18;6.50;;;2.22;;